createdAt,value
2022-07-27T00:04:52.333Z,27.00
2022-07-27T00:09:53.731Z,27.09
2022-07-27T00:14:58.809Z,27.03
2022-07-27T00:20:00.215Z,26.98
2022-07-27T00:25:01.641Z,27.07
2022-07-27T00:30:03.661Z,26.92
2022-07-27T00:35:05.568Z,27.02
2022-07-27T00:40:07.508Z,26.97
2022-07-27T00:45:09.438Z,26.96
2022-07-27T00:50:10.846Z,26.96
2022-07-27T00:55:12.274Z,26.92
2022-07-27T01:00:14.082Z,26.88
2022-07-27T01:05:15.609Z,26.84
2022-07-27T01:10:17.328Z,26.76
2022-07-27T01:15:18.759Z,26.75
2022-07-27T01:20:20.173Z,26.73
2022-07-27T01:25:21.577Z,26.69
2022-07-27T01:30:30.094Z,26.70
2022-07-27T01:35:31.698Z,26.67
2022-07-27T01:40:33.969Z,26.70
2022-07-27T01:45:35.394Z,26.69
2022-07-27T01:50:36.970Z,26.63
2022-07-27T01:55:39.529Z,26.62
2022-07-27T02:00:41.152Z,26.60
2022-07-27T02:05:42.739Z,26.59
2022-07-27T02:11:02.749Z,26.63
2022-07-27T02:16:04.234Z,26.56
2022-07-27T02:21:12.014Z,26.58
2022-07-27T02:26:13.420Z,26.56
2022-07-27T02:31:14.864Z,26.54
2022-07-27T02:36:16.273Z,26.52
2022-07-27T02:41:17.686Z,26.50
2022-07-27T02:46:19.163Z,26.51
2022-07-27T02:51:20.600Z,26.47
2022-07-27T02:56:26.646Z,26.52
2022-07-27T03:01:28.539Z,26.50
2022-07-27T03:06:30.008Z,26.48
2022-07-27T03:11:31.411Z,26.45
2022-07-27T03:16:32.819Z,26.45
2022-07-27T03:21:34.237Z,26.49
2022-07-27T03:26:35.722Z,26.42
2022-07-27T03:31:37.141Z,26.41
2022-07-27T03:36:38.674Z,26.44
2022-07-27T03:41:40.089Z,26.44
2022-07-27T03:46:41.490Z,26.39
2022-07-27T03:51:42.895Z,26.43
2022-07-27T03:56:44.772Z,26.43
2022-07-27T04:01:46.240Z,26.35
2022-07-27T04:06:47.738Z,26.36
2022-07-27T04:11:51.085Z,26.31
2022-07-27T04:16:53.141Z,26.31
2022-07-27T04:21:54.681Z,26.38
2022-07-27T04:26:56.093Z,26.35
2022-07-27T04:31:57.517Z,26.28
2022-07-27T04:36:58.933Z,26.28
2022-07-27T04:42:00.425Z,26.30
2022-07-27T04:47:01.832Z,26.21
2022-07-27T04:52:03.410Z,26.26
2022-07-27T04:57:04.851Z,26.22
2022-07-27T05:02:06.267Z,26.25
2022-07-27T05:07:07.671Z,26.24
2022-07-27T05:12:09.189Z,26.22
2022-07-27T05:17:10.604Z,26.34
2022-07-27T05:22:12.049Z,26.31
2022-07-27T05:27:13.501Z,26.27
2022-07-27T05:32:15.008Z,26.26
2022-07-27T05:37:16.462Z,26.25
2022-07-27T05:42:17.969Z,26.35
2022-07-27T05:47:19.364Z,26.30
2022-07-27T05:52:21.832Z,26.30
2022-07-27T05:57:23.251Z,26.24
2022-07-27T06:02:25.180Z,26.24
2022-07-27T06:07:45.402Z,26.32
2022-07-27T06:12:51.342Z,26.28
2022-07-27T06:17:53.890Z,26.28
2022-07-27T06:23:00.104Z,26.31
2022-07-27T06:28:01.700Z,26.21
2022-07-27T06:33:06.521Z,26.21
2022-07-27T06:38:08.447Z,26.24
2022-07-27T06:43:10.030Z,26.12
2022-07-27T06:48:11.682Z,26.18
2022-07-27T06:53:14.152Z,26.19
2022-07-27T06:58:18.142Z,26.12
2022-07-27T07:03:19.635Z,26.40
2022-07-27T07:08:22.600Z,26.38
2022-07-27T07:13:24.025Z,26.64
2022-07-27T07:18:25.442Z,26.58
2022-07-27T07:23:26.861Z,26.66
2022-07-27T07:28:28.446Z,26.63
2022-07-27T07:33:30.085Z,26.54
2022-07-27T07:38:31.518Z,26.67
2022-07-27T07:43:36.535Z,26.75
2022-07-27T07:48:39.396Z,26.70
2022-07-27T07:53:41.832Z,26.74
2022-07-27T07:58:43.376Z,26.84
2022-07-27T08:03:50.306Z,26.88
2022-07-27T08:08:52.367Z,26.85
2022-07-27T08:13:53.784Z,26.85
2022-07-27T08:18:55.200Z,26.84
2022-07-27T08:23:56.606Z,26.76
2022-07-27T08:29:13.253Z,26.74
2022-07-27T08:34:15.142Z,26.77
2022-07-27T08:39:52.649Z,26.88
2022-07-27T08:44:41.079Z,26.97
2022-07-27T08:49:44.116Z,26.90
2022-07-27T08:54:45.773Z,26.85
2022-07-27T08:59:47.207Z,26.78
2022-07-27T09:04:48.630Z,26.90
2022-07-27T09:09:50.400Z,27.05
2022-07-27T09:14:54.781Z,27.02
2022-07-27T09:19:57.781Z,26.98
2022-07-27T09:25:02.876Z,27.08
2022-07-27T09:30:09.221Z,26.97
2022-07-27T09:35:24.041Z,26.94
2022-07-27T09:40:25.978Z,26.98
2022-07-27T09:45:33.931Z,26.96
2022-07-27T09:50:36.130Z,27.02
2022-07-27T09:55:37.615Z,26.94
2022-07-27T10:00:39.046Z,27.00
2022-07-27T10:05:40.565Z,27.05
2022-07-27T10:10:42.039Z,27.05
2022-07-27T10:15:43.551Z,26.98
2022-07-27T10:20:47.506Z,26.77
2022-07-27T10:25:49.299Z,26.84
2022-07-27T10:30:54.432Z,26.91
2022-07-27T10:35:56.105Z,26.94
2022-07-27T10:41:20.814Z,26.82
2022-07-27T10:46:22.382Z,26.90
2022-07-27T10:51:34.353Z,26.80
2022-07-27T10:56:44.366Z,26.86
2022-07-27T11:01:55.963Z,26.82
2022-07-27T11:12:21.839Z,26.77
2022-07-27T11:28:11.589Z,26.85
2022-07-27T11:33:13.489Z,26.90
2022-07-27T11:38:14.897Z,26.84
2022-07-27T11:43:33.833Z,26.83
2022-07-27T11:49:03.964Z,26.82
2022-07-27T11:54:01.782Z,26.60
2022-07-27T11:59:16.383Z,26.61
2022-07-27T12:04:24.894Z,26.52
2022-07-27T12:09:26.483Z,26.42
2022-07-27T12:14:41.193Z,26.52
2022-07-27T12:19:42.718Z,26.40
2022-07-27T12:24:44.363Z,26.61
2022-07-27T12:30:10.182Z,26.51
2022-07-27T12:35:20.150Z,26.50
2022-07-27T12:40:21.626Z,26.42
2022-07-27T12:45:23.090Z,26.40
2022-07-27T12:50:27.697Z,26.50
2022-07-27T12:55:29.097Z,26.45
2022-07-27T13:00:33.568Z,26.52
2022-07-27T13:05:36.526Z,26.47
2022-07-27T13:10:38.330Z,26.76
2022-07-27T13:15:40.037Z,26.59
2022-07-27T13:20:42.310Z,26.56
2022-07-27T13:25:44.048Z,26.52
2022-07-27T13:30:45.464Z,26.44
2022-07-27T13:35:47.473Z,26.52
2022-07-27T13:40:53.174Z,26.47
2022-07-27T13:45:54.716Z,26.51
2022-07-27T13:50:56.236Z,26.48
2022-07-27T13:55:57.651Z,26.47
2022-07-27T14:01:02.672Z,26.63
2022-07-27T14:06:08.492Z,26.55
2022-07-27T14:11:11.645Z,26.52
2022-07-27T14:16:13.262Z,26.49
2022-07-27T14:21:14.714Z,26.54
2022-07-27T14:26:16.222Z,26.59
2022-07-27T14:31:18.247Z,26.60
2022-07-27T14:36:19.685Z,26.57
2022-07-27T14:41:21.165Z,26.61
2022-07-27T14:46:22.651Z,26.63
2022-07-27T14:51:24.317Z,26.59
2022-07-27T14:56:25.735Z,26.55
2022-07-27T15:01:27.228Z,26.62
2022-07-27T15:06:28.753Z,26.59
2022-07-27T15:11:30.208Z,26.71
2022-07-27T15:16:31.727Z,26.57
2022-07-27T15:21:33.160Z,26.61
2022-07-27T15:26:34.889Z,26.75
2022-07-27T15:31:36.475Z,26.82
2022-07-27T15:36:44.762Z,26.72
2022-07-27T15:41:49.393Z,26.78
2022-07-27T15:46:50.842Z,26.75
2022-07-27T15:51:52.454Z,26.58
2022-07-27T15:56:53.922Z,26.58
2022-07-27T16:01:55.421Z,26.58
2022-07-27T16:06:56.821Z,26.57
2022-07-27T16:11:58.237Z,26.62
2022-07-27T16:17:02.453Z,26.56
2022-07-27T16:22:03.919Z,26.64
2022-07-27T16:27:05.813Z,26.64
2022-07-27T16:32:07.219Z,26.65
2022-07-27T16:37:08.670Z,26.63
2022-07-27T16:42:10.081Z,26.59
2022-07-27T16:47:12.264Z,26.55
2022-07-27T16:52:13.698Z,26.54
2022-07-27T16:57:15.093Z,26.54
2022-07-27T17:02:16.661Z,26.59
2022-07-27T17:07:18.113Z,26.60
2022-07-27T17:12:19.550Z,26.69
2022-07-27T17:17:24.973Z,26.62
2022-07-27T17:22:26.383Z,26.52
2022-07-27T17:27:27.838Z,26.59
2022-07-27T17:32:29.241Z,26.67
2022-07-27T17:37:49.336Z,26.61
2022-07-27T17:42:52.045Z,26.62
2022-07-27T17:47:53.618Z,26.56
2022-07-27T17:52:56.865Z,26.50
2022-07-27T17:57:58.270Z,26.50
2022-07-27T18:03:00.083Z,26.56
2022-07-27T18:08:01.547Z,26.50
2022-07-27T18:13:06.321Z,26.47
2022-07-27T18:18:07.745Z,26.52
2022-07-27T18:23:09.174Z,26.55
2022-07-27T18:28:10.930Z,26.46
2022-07-27T18:33:13.019Z,26.41
2022-07-27T18:38:14.549Z,26.46
2022-07-27T18:43:18.070Z,26.40
2022-07-27T18:48:19.529Z,26.40
2022-07-27T18:53:20.929Z,26.39
2022-07-27T18:58:22.388Z,26.36
2022-07-27T19:03:24.759Z,26.33
2022-07-27T19:08:29.173Z,26.28
2022-07-27T19:13:30.703Z,26.30
2022-07-27T19:18:32.131Z,26.30
2022-07-27T19:23:33.546Z,26.31
2022-07-27T19:28:34.958Z,26.29
2022-07-27T19:33:36.362Z,26.30
2022-07-27T19:38:37.771Z,26.26
2022-07-27T19:43:39.188Z,26.26
2022-07-27T19:48:40.646Z,26.27
2022-07-27T19:53:44.225Z,26.26
2022-07-27T19:58:46.309Z,26.21
2022-07-27T20:03:54.308Z,26.25
2022-07-27T20:08:59.397Z,26.20
2022-07-27T20:14:02.373Z,26.22
2022-07-27T20:19:03.999Z,26.21
2022-07-27T20:24:05.561Z,26.16
2022-07-27T20:29:07.536Z,26.22
2022-07-27T20:34:08.941Z,26.18
2022-07-27T20:39:15.330Z,26.18
2022-07-27T20:44:20.670Z,26.17
2022-07-27T20:49:22.860Z,26.12
2022-07-27T20:54:29.136Z,26.14
2022-07-27T20:59:32.441Z,26.14
2022-07-27T21:04:33.848Z,26.14
2022-07-27T21:09:35.254Z,26.11
2022-07-27T21:14:36.740Z,26.07
2022-07-27T21:19:38.444Z,26.10
2022-07-27T21:24:39.852Z,26.07
2022-07-27T21:29:41.290Z,26.08
2022-07-27T21:34:42.697Z,26.09
2022-07-27T21:39:45.592Z,26.04
2022-07-27T21:44:47.011Z,26.08
2022-07-27T21:49:48.441Z,26.03
2022-07-27T21:54:49.903Z,26.04
2022-07-27T21:59:51.312Z,25.97
2022-07-27T22:04:52.717Z,25.98
2022-07-27T22:09:54.133Z,25.98
2022-07-27T22:14:55.633Z,25.95
2022-07-27T22:19:57.128Z,25.95
2022-07-27T22:24:58.881Z,25.88
2022-07-27T22:30:00.334Z,25.91
2022-07-27T22:35:01.981Z,25.92
2022-07-27T22:40:03.937Z,25.87
2022-07-27T22:45:05.916Z,25.87
2022-07-27T22:50:08.040Z,25.91
2022-07-27T22:55:15.057Z,25.96
2022-07-27T23:00:18.413Z,25.91
2022-07-27T23:05:19.900Z,25.86
2022-07-27T23:10:39.791Z,25.84
2022-07-27T23:15:41.253Z,25.82
2022-07-27T23:20:42.667Z,25.79
2022-07-27T23:25:47.984Z,25.82
2022-07-27T23:30:51.356Z,25.82
2022-07-27T23:35:52.760Z,25.80
2022-07-27T23:40:54.173Z,25.81
2022-07-27T23:45:55.586Z,25.78
2022-07-27T23:50:56.989Z,25.78
2022-07-27T23:55:58.456Z,25.78
